Time;durP1;ratioP1;P1;durP2;ratioP2;P2;SDS_P1;SDS_P2;PMS_P1;PMS_P2;Temp;Humidity;BMP_temperature;BMP_pressure;BME280_temperature;BME280_humidity;BME280_pressure;Samples;Min_cycle;Max_cycle;Signal;HPM_P1;HPM_P2
2022/01/11 00:01:19;;;;;;;27.83;14.67;;;;;;;3.18;82.54;100886.50;4974837;28;20245;-78
2022/01/11 00:03:45;;;;;;;32.63;14.50;;;;;;;3.11;82.01;100883.00;4974937;28;20186;-78
2022/01/11 00:08:39;;;;;;;30.60;15.03;;;;;;;3.03;81.52;100889.69;4974527;28;20181;-78
2022/01/11 00:11:05;;;;;;;26.03;12.90;;;;;;;3.11;82.10;100890.59;4957206;28;20234;-78
2022/01/11 00:13:36;;;;;;;27.10;13.63;;;;;;;2.82;81.96;100849.06;4974436;28;20480;-79
2022/01/11 00:16:02;;;;;;;27.23;13.30;;;;;;;3.08;81.75;100890.22;4974158;28;20717;-77
2022/01/11 00:18:28;;;;;;;22.53;12.83;;;;;;;3.02;81.96;100903.03;4974223;28;20693;-77
2022/01/11 00:20:54;;;;;;;23.37;12.87;;;;;;;2.47;81.79;100815.22;4974610;28;20185;-78
2022/01/11 00:25:50;;;;;;;25.70;13.33;;;;;;;2.98;80.94;100901.75;4974260;28;20178;-78
2022/01/11 00:28:18;;;;;;;23.30;12.33;;;;;;;2.94;79.89;100899.56;4974249;28;20261;-78
2022/01/11 00:30:45;;;;;;;21.40;11.27;;;;;;;2.91;79.29;100906.78;4974033;28;20184;-78
2022/01/11 00:33:13;;;;;;;25.40;12.53;;;;;;;2.70;80.18;100892.34;4973857;28;20178;-79
2022/01/11 00:35:45;;;;;;;25.07;12.93;;;;;;;2.85;80.62;100920.28;4974039;28;20697;-78
2022/01/11 00:38:15;;;;;;;25.23;11.63;;;;;;;2.78;80.79;100919.53;4974268;28;20248;-78
2022/01/11 00:40:48;;;;;;;23.83;12.70;;;;;;;2.81;80.50;100928.22;4974095;28;20705;-77
2022/01/11 00:43:20;;;;;;;20.77;11.67;;;;;;;2.74;80.29;100940.13;4974016;28;20177;-77
2022/01/11 00:45:46;;;;;;;25.60;13.20;;;;;;;2.74;80.24;100935.06;4973819;28;20287;-76
2022/01/11 00:48:12;;;;;;;25.60;11.90;;;;;;;2.75;79.98;100939.38;4973962;28;20186;-78
2022/01/11 00:50:37;;;;;;;28.00;15.20;;;;;;;2.69;79.76;100956.31;4974000;28;20241;-77
2022/01/11 00:53:08;;;;;;;23.13;13.10;;;;;;;2.72;79.52;100943.16;4974017;28;20184;-76
2022/01/11 00:55:34;;;;;;;22.77;12.87;;;;;;;2.74;78.92;100949.31;4974155;28;20562;-78
2022/01/11 00:58:02;;;;;;;24.80;13.30;;;;;;;2.68;79.23;100946.00;4973264;28;20273;-78
2022/01/11 01:00:29;;;;;;;24.53;13.03;;;;;;;2.70;80.32;100963.19;4973937;28;20218;-77
2022/01/11 01:02:54;;;;;;;24.60;12.57;;;;;;;2.71;80.99;100953.97;4973590;28;20189;-78
2022/01/11 01:05:21;;;;;;;24.63;13.57;;;;;;;2.70;80.11;100954.69;4973873;28;20174;-77
2022/01/11 01:07:47;;;;;;;24.07;12.43;;;;;;;2.68;80.65;100966.22;4973789;28;20236;-77
2022/01/11 01:10:22;;;;;;;23.87;12.67;;;;;;;2.37;79.20;100929.50;4974041;28;20673;-77
2022/01/11 01:12:48;;;;;;;21.90;12.17;;;;;;;2.59;79.40;100972.69;4956374;28;20169;-77
2022/01/11 01:15:13;;;;;;;21.57;12.43;;;;;;;2.49;80.09;100981.66;4973471;28;20241;-76
2022/01/11 01:17:39;;;;;;;21.60;12.33;;;;;;;2.39;79.44;100949.91;4973831;28;20186;-78
2022/01/11 01:20:06;;;;;;;22.53;12.77;;;;;;;2.58;80.03;100981.88;4973359;28;20642;-77
2022/01/11 01:22:31;;;;;;;26.93;14.67;;;;;;;2.52;79.55;100981.09;4973530;28;20257;-78
2022/01/11 01:24:57;;;;;;;23.53;13.57;;;;;;;2.58;80.48;100970.84;4973396;28;20647;-77
2022/01/11 01:27:22;;;;;;;24.70;14.23;;;;;;;2.53;80.61;100978.78;4973451;28;20290;-77
2022/01/11 01:29:48;;;;;;;26.27;13.27;;;;;;;2.59;80.52;100978.66;4973420;28;20178;-78
2022/01/11 01:32:14;;;;;;;26.47;13.70;;;;;;;2.42;79.57;100952.84;4973717;28;20186;-78
2022/01/11 01:34:39;;;;;;;22.53;12.97;;;;;;;2.53;79.63;100970.28;4974456;28;20177;-78
2022/01/11 01:37:07;;;;;;;23.10;13.57;;;;;;;2.57;80.17;100986.75;4973895;28;20264;-78
2022/01/11 01:39:33;;;;;;;23.33;13.57;;;;;;;2.62;80.19;100981.56;4974290;28;20334;-76
2022/01/11 01:42:01;;;;;;;22.60;13.43;;;;;;;2.54;79.95;100983.13;4974351;28;20257;-76
2022/01/11 01:44:26;;;;;;;26.67;14.20;;;;;;;2.35;80.08;100950.25;4974112;28;20737;-78
2022/01/11 01:46:52;;;;;;;23.13;12.80;;;;;;;2.31;80.31;100943.91;4973916;28;20197;-78
2022/01/11 01:49:20;;;;;;;25.10;14.27;;;;;;;2.52;80.94;100983.63;4974081;28;20188;-77
2022/01/11 01:51:46;;;;;;;26.13;14.83;;;;;;;2.54;81.44;100990.72;4974428;28;20182;-78
2022/01/11 01:54:14;;;;;;;24.30;13.50;;;;;;;2.57;80.94;100986.75;4955815;28;20179;-77
2022/01/11 01:56:40;;;;;;;25.10;14.10;;;;;;;2.26;79.93;100945.81;4972938;28;20269;-78
2022/01/11 01:59:06;;;;;;;25.97;14.87;;;;;;;2.59;80.47;100998.00;4973192;28;20187;-78
2022/01/11 02:01:37;;;;;;;27.53;14.37;;;;;;;2.56;80.19;101002.66;4972944;28;20174;-77
2022/01/11 02:04:02;;;;;;;27.67;13.73;;;;;;;2.56;80.06;100995.06;4973206;28;20201;-77
2022/01/11 02:06:28;;;;;;;25.53;14.73;;;;;;;2.46;79.66;101000.56;4972919;28;20541;-76
2022/01/11 02:08:53;;;;;;;28.90;14.40;;;;;;;2.51;79.76;101004.59;4972873;28;20177;-76
2022/01/11 02:11:21;;;;;;;24.80;14.83;;;;;;;2.54;79.73;101013.47;4974636;28;20252;-77
2022/01/11 02:13:48;;;;;;;24.73;14.33;;;;;;;2.55;79.50;101016.91;4976763;28;20684;-79
2022/01/11 02:16:14;;;;;;;32.87;15.90;;;;;;;2.43;80.15;101011.22;4976434;28;20178;-77
2022/01/11 02:18:41;;;;;;;29.90;15.13;;;;;;;2.49;79.73;101027.19;4959203;28;20198;-77
2022/01/11 02:21:08;;;;;;;25.40;14.07;;;;;;;2.46;79.11;101009.06;4976369;28;20207;-77
2022/01/11 02:23:33;;;;;;;24.10;13.83;;;;;;;2.54;79.25;101022.69;4959204;28;20178;-78
2022/01/11 02:25:59;;;;;;;27.80;14.53;;;;;;;2.57;79.14;101057.59;4976439;28;20188;-76
2022/01/11 02:28:27;;;;;;;23.60;15.13;;;;;;;2.50;79.16;101049.22;4976307;28;20166;-77
2022/01/11 02:30:54;;;;;;;25.77;14.77;;;;;;;2.54;79.46;101066.59;4976115;28;20691;-76
2022/01/11 02:33:40;;;;;;;24.60;14.37;;;;;;;2.50;79.35;101056.81;4975998;28;20182;-77
2022/01/11 02:36:09;;;;;;;24.73;14.70;;;;;;;2.41;79.97;101050.56;4976283;28;20170;-77
2022/01/11 02:38:35;;;;;;;25.73;13.97;;;;;;;2.57;79.77;101082.88;4976101;28;20607;-77
2022/01/11 02:41:01;;;;;;;26.50;15.17;;;;;;;2.41;79.62;101053.09;4975821;28;20237;-77
2022/01/11 02:43:27;;;;;;;29.70;15.70;;;;;;;2.37;78.82;101068.59;4975793;28;20170;-77
2022/01/11 02:45:53;;;;;;;24.43;15.43;;;;;;;2.29;78.36;101046.44;4975987;28;20194;-76
2022/01/11 02:48:18;;;;;;;26.37;15.67;;;;;;;2.31;77.97;101055.16;4975865;28;20259;-76
2022/01/11 02:50:45;;;;;;;26.87;14.27;;;;;;;1.96;77.29;100995.91;4975575;28;20266;-78
2022/01/11 02:53:12;;;;;;;28.10;15.87;;;;;;;2.39;77.86;101092.44;4975613;28;20574;-78
2022/01/11 02:55:40;;;;;;;26.63;15.10;;;;;;;2.40;78.02;101091.75;4976035;28;20174;-77
2022/01/11 02:58:06;;;;;;;26.93;15.43;;;;;;;2.32;78.43;101107.53;4975658;28;20225;-78
2022/01/11 03:00:32;;;;;;;27.97;15.10;;;;;;;2.35;78.13;101114.63;4975940;28;20733;-78
2022/01/11 03:03:23;;;;;;;25.53;15.20;;;;;;;2.29;77.97;101089.44;4975647;28;20206;-77
2022/01/11 03:05:52;;;;;;;28.40;15.00;;;;;;;2.29;78.43;101097.94;4975654;28;20671;-78
2022/01/11 03:08:18;;;;;;;25.20;15.00;;;;;;;2.25;78.03;101104.94;4975840;28;20174;-77
2022/01/11 03:10:45;;;;;;;26.50;15.50;;;;;;;2.22;78.73;101089.38;4958099;28;20221;-77
2022/01/11 03:13:11;;;;;;;29.80;15.97;;;;;;;2.17;78.04;101093.81;4976135;28;20565;-78
2022/01/11 03:15:38;;;;;;;25.90;15.83;;;;;;;2.16;77.93;101099.56;4975562;28;20669;-78
2022/01/11 03:18:06;;;;;;;29.33;15.87;;;;;;;2.16;78.40;101094.53;4975325;28;20236;-77
2022/01/11 03:20:33;;;;;;;29.37;15.17;;;;;;;2.00;77.97;101078.97;4975699;28;20261;-76
2022/01/11 03:22:59;;;;;;;30.13;16.40;;;;;;;2.07;78.78;101101.81;4975317;28;20305;-77
2022/01/11 03:25:25;;;;;;;30.00;16.50;;;;;;;2.09;78.69;101104.56;4977004;28;20595;-76
2022/01/11 03:27:51;;;;;;;33.30;17.33;;;;;;;2.14;78.90;101121.22;4976273;28;20189;-78
2022/01/11 03:30:17;;;;;;;28.27;15.37;;;;;;;1.89;78.23;101076.66;4975879;28;20278;-78
2022/01/11 03:32:45;;;;;;;35.13;17.27;;;;;;;2.14;79.29;101127.88;4958383;28;20182;-78
2022/01/11 03:35:12;;;;;;;30.57;16.93;;;;;;;2.17;78.56;101126.66;4976152;28;20174;-80
2022/01/11 03:37:40;;;;;;;34.90;16.40;;;;;;;2.17;78.54;101131.72;4975642;28;20246;-77
2022/01/11 03:40:10;;;;;;;31.43;16.00;;;;;;;2.18;78.74;101120.94;4975234;28;20202;-77
2022/01/11 03:42:36;;;;;;;31.53;17.50;;;;;;;2.20;78.25;101128.69;4975304;28;20188;-78
2022/01/11 03:45:03;;;;;;;31.20;16.67;;;;;;;2.16;78.66;101119.81;4975188;28;20676;-77
2022/01/11 03:47:29;;;;;;;31.63;16.50;;;;;;;2.21;78.86;101133.97;4975146;28;20217;-78
2022/01/11 03:49:54;;;;;;;29.27;15.90;;;;;;;2.06;78.56;101107.59;4974831;28;20227;-77
2022/01/11 03:52:20;;;;;;;41.37;21.83;;;;;;;2.25;79.28;101137.81;4974982;28;20189;-78
2022/01/11 03:57:21;;;;;;;27.73;16.30;;;;;;;2.29;78.45;101145.06;4975045;28;20205;-77
2022/01/11 03:59:46;;;;;;;29.20;17.20;;;;;;;2.29;78.43;101160.25;4975178;28;20182;-78
2022/01/11 04:02:12;;;;;;;26.50;15.60;;;;;;;2.30;78.16;101157.91;4975068;28;20670;-76
2022/01/11 04:04:38;;;;;;;33.40;17.03;;;;;;;2.33;78.29;101162.44;4975392;28;20185;-78
2022/01/11 04:07:04;;;;;;;26.00;15.17;;;;;;;2.23;77.69;101162.88;4975348;28;20233;-77
2022/01/11 04:09:29;;;;;;;25.50;15.10;;;;;;;2.28;77.97;101161.88;4975477;28;20181;-78
2022/01/11 04:11:55;;;;;;;26.03;14.87;;;;;;;2.26;78.42;101175.91;4974402;28;20248;-77
2022/01/11 04:14:22;;;;;;;27.33;16.33;;;;;;;2.30;78.61;101184.81;4974733;28;20688;-78
2022/01/11 04:16:48;;;;;;;43.30;23.27;;;;;;;2.28;78.23;101188.78;4974720;28;20205;-77
2022/01/11 04:19:14;;;;;;;34.60;19.00;;;;;;;2.28;77.65;101186.25;4974940;28;20641;-77
2022/01/11 04:21:39;;;;;;;24.90;15.03;;;;;;;2.29;77.37;101188.97;4975233;28;20257;-76
2022/01/11 04:24:07;;;;;;;28.90;15.53;;;;;;;2.19;77.53;101183.41;4974330;28;20193;-77
2022/01/11 04:26:33;;;;;;;28.17;14.47;;;;;;;2.21;77.71;101188.66;4974920;28;20174;-76
2022/01/11 04:28:58;;;;;;;30.37;15.37;;;;;;;2.25;77.75;101208.59;4975079;28;20205;-77
2022/01/11 04:31:24;;;;;;;26.47;15.17;;;;;;;2.22;77.49;101208.19;4975555;28;20178;-77
2022/01/11 04:33:49;;;;;;;27.13;14.23;;;;;;;2.06;76.20;101188.47;4976571;28;20591;-78
2022/01/11 04:36:15;;;;;;;25.07;14.13;;;;;;;2.20;75.98;101217.19;4974984;28;20555;-78
2022/01/11 04:38:40;;;;;;;30.07;15.10;;;;;;;1.91;75.75;101198.16;4974497;28;20676;-76
2022/01/11 04:41:06;;;;;;;33.67;18.47;;;;;;;2.03;74.70;101215.88;4974057;28;20637;-76
2022/01/11 04:43:32;;;;;;;44.10;23.00;;;;;;;2.05;75.39;101222.00;4973885;28;20174;-77
2022/01/11 04:45:58;;;;;;;41.80;21.30;;;;;;;2.13;75.16;101248.34;4976832;28;20268;-78
2022/01/11 04:48:24;;;;;;;25.13;13.23;;;;;;;2.13;74.50;101239.84;4975086;28;20166;-78
2022/01/11 04:50:49;;;;;;;27.90;14.70;;;;;;;1.91;74.50;101208.28;4974572;28;20181;-77
2022/01/11 04:53:16;;;;;;;28.00;13.87;;;;;;;1.57;74.51;101151.63;4974658;28;20182;-77
2022/01/11 04:55:42;;;;;;;23.30;13.10;;;;;;;1.90;73.86;101216.53;4974983;28;20554;-78
2022/01/11 04:58:07;;;;;;;25.33;13.80;;;;;;;1.76;74.02;101207.13;4974304;28;20201;-77
2022/01/11 05:00:34;;;;;;;24.83;13.17;;;;;;;1.90;74.14;101245.28;4974515;28;20193;-77
2022/01/11 05:03:00;;;;;;;30.90;15.60;;;;;;;1.89;74.70;101263.66;4974616;28;20189;-78
2022/01/11 05:05:28;;;;;;;24.90;14.03;;;;;;;1.92;75.51;101242.94;4975570;28;20670;-78
2022/01/11 05:07:54;;;;;;;24.80;13.77;;;;;;;1.82;75.19;101231.59;4975089;28;20197;-78
2022/01/11 05:10:19;;;;;;;23.53;14.20;;;;;;;2.00;74.77;101271.06;4973547;28;20656;-78
2022/01/11 05:12:45;;;;;;;26.07;14.80;;;;;;;1.92;74.73;101243.84;4973694;28;20155;-79
2022/01/11 05:15:12;;;;;;;27.03;14.73;;;;;;;1.99;74.59;101276.81;4973622;28;20170;-77
2022/01/11 05:17:38;;;;;;;28.47;13.63;;;;;;;2.00;75.07;101281.19;4973186;28;20221;-77
2022/01/11 05:20:05;;;;;;;24.50;14.00;;;;;;;2.02;74.50;101281.38;4975438;28;20185;-78
2022/01/11 05:22:31;;;;;;;25.97;13.03;;;;;;;1.83;73.98;101238.47;4977169;28;20173;-79
2022/01/11 05:24:57;;;;;;;24.40;13.53;;;;;;;2.02;74.64;101286.41;4976164;28;20185;-77
2022/01/11 05:27:22;;;;;;;25.53;14.60;;;;;;;1.98;74.19;101271.56;4976177;28;20174;-77
2022/01/11 05:29:48;;;;;;;28.20;15.77;;;;;;;2.02;74.34;101289.84;4974099;28;20658;-77
2022/01/11 05:32:13;;;;;;;24.77;13.00;;;;;;;1.80;73.84;101249.78;4975926;28;20286;-76
2022/01/11 05:34:39;;;;;;;23.30;13.83;;;;;;;2.07;80.93;101290.50;4973865;28;20284;-75
2022/01/11 05:37:04;;;;;;;23.50;13.10;;;;;;;2.18;82.30;101294.44;4973380;28;20204;-74
2022/01/11 05:39:30;;;;;;;26.07;14.00;;;;;;;2.03;81.03;101248.72;4973174;28;20177;-73
2022/01/11 05:41:56;;;;;;;23.40;13.63;;;;;;;2.34;79.83;101298.31;4973401;28;20214;-74
2022/01/11 05:44:22;;;;;;;23.23;13.57;;;;;;;2.40;78.80;101304.19;4955647;28;20210;-73
2022/01/11 05:46:48;;;;;;;24.63;13.77;;;;;;;2.40;78.73;101304.19;4973529;28;20661;-72
2022/01/11 05:49:13;;;;;;;21.10;12.70;;;;;;;2.40;78.16;101308.31;4972343;28;20190;-73
2022/01/11 05:51:39;;;;;;;23.20;12.73;;;;;;;2.22;78.25;101284.06;4973466;28;20182;-73
2022/01/11 05:54:04;;;;;;;26.13;13.03;;;;;;;2.19;78.71;101282.03;4973875;28;20178;-74
2022/01/11 05:56:30;;;;;;;27.43;14.90;;;;;;;2.35;77.82;101320.38;4975566;28;20612;-75
2022/01/11 05:58:55;;;;;;;21.97;12.80;;;;;;;2.28;73.90;101320.28;4978851;28;20221;-76
2022/01/11 06:01:23;;;;;;;23.90;12.50;;;;;;;2.19;72.90;101336.75;4979642;28;20188;-74
2022/01/11 06:03:49;;;;;;;20.53;12.07;;;;;;;2.10;73.40;101320.34;4977879;28;20242;-76
2022/01/11 06:06:14;;;;;;;21.60;10.97;;;;;;;2.03;73.04;101323.66;4978561;28;20213;-77
2022/01/11 06:08:40;;;;;;;22.07;12.03;;;;;;;1.84;73.30;101317.75;4979149;28;20210;-75
2022/01/11 06:11:06;;;;;;;20.57;11.80;;;;;;;1.88;72.88;101314.00;4977255;28;20226;-75
2022/01/11 06:13:32;;;;;;;26.80;12.23;;;;;;;1.87;73.88;101322.28;4978112;28;20189;-74
2022/01/11 06:15:57;;;;;;;26.37;12.90;;;;;;;1.83;74.05;101328.53;4976980;28;20186;-74
2022/01/11 06:18:23;;;;;;;22.33;12.43;;;;;;;1.75;74.40;101314.88;4976611;28;20194;-74
2022/01/11 06:20:48;;;;;;;23.47;12.23;;;;;;;1.57;74.75;101288.03;4974030;28;20177;-75
2022/01/11 06:23:14;;;;;;;26.80;13.83;;;;;;;1.75;74.86;101324.97;4973283;28;20185;-76
2022/01/11 06:25:41;;;;;;;22.33;12.93;;;;;;;1.68;75.78;101342.50;4973022;28;20545;-76
2022/01/11 06:28:06;;;;;;;26.63;13.53;;;;;;;1.70;76.23;101342.75;4972986;28;20269;-76
2022/01/11 06:30:32;;;;;;;24.97;13.93;;;;;;;1.71;77.47;101350.50;4973111;28;20640;-77
2022/01/11 06:32:57;;;;;;;25.23;13.07;;;;;;;1.71;77.34;101347.97;4972412;28;20174;-76
2022/01/11 06:35:24;;;;;;;27.47;13.80;;;;;;;1.72;77.74;101359.03;4972621;28;20266;-75
2022/01/11 06:37:51;;;;;;;27.33;14.57;;;;;;;1.71;77.32;101350.50;4972625;28;20214;-76
2022/01/11 06:40:18;;;;;;;28.20;13.77;;;;;;;1.73;77.73;101348.22;4971840;28;20185;-76
2022/01/11 06:42:46;;;;;;;24.63;14.17;;;;;;;1.58;77.83;101341.97;4972425;28;20185;-77
2022/01/11 06:45:12;;;;;;;26.07;12.97;;;;;;;1.70;78.01;101361.31;4972878;28;20175;-77
2022/01/11 06:47:38;;;;;;;29.13;14.57;;;;;;;1.74;77.32;101375.28;4972339;28;20253;-77
2022/01/11 06:50:04;;;;;;;26.67;14.07;;;;;;;1.71;77.66;101397.59;4971872;28;20261;-78
2022/01/11 06:52:30;;;;;;;27.80;13.87;;;;;;;1.66;77.15;101378.41;4972202;28;20632;-78
2022/01/11 06:54:56;;;;;;;26.53;13.37;;;;;;;1.17;77.25;101295.91;4971519;28;20197;-78
2022/01/11 06:57:21;;;;;;;25.13;13.53;;;;;;;1.46;77.24;101348.78;4974079;28;20210;-77
2022/01/11 06:59:47;;;;;;;25.73;14.37;;;;;;;1.68;77.31;101387.97;4975630;28;20194;-76
2022/01/11 07:02:12;;;;;;;26.43;12.63;;;;;;;1.70;76.63;101394.16;4975901;28;20194;-77
2022/01/11 07:04:38;;;;;;;23.73;12.60;;;;;;;1.68;76.50;101385.47;4975796;28;20549;-76
2022/01/11 07:07:05;;;;;;;26.07;14.17;;;;;;;1.54;76.38;101372.56;4975452;28;20170;-77
2022/01/11 07:09:31;;;;;;;29.03;13.33;;;;;;;1.63;76.35;101409.19;4958252;28;20577;-77
2022/01/11 07:11:56;;;;;;;29.17;14.43;;;;;;;1.69;76.43;101405.00;4976031;28;20241;-77
2022/01/11 07:14:22;;;;;;;27.23;14.10;;;;;;;1.63;76.49;101414.25;4975542;28;20182;-78
2022/01/11 07:16:49;;;;;;;30.00;14.80;;;;;;;1.66;75.85;101414.69;4975400;28;20206;-78
2022/01/11 07:19:18;;;;;;;39.97;19.50;;;;;;;1.57;76.80;101411.78;4975456;28;20206;-75
2022/01/11 07:21:45;;;;;;;27.93;14.53;;;;;;;1.61;76.30;101415.66;4975188;28;20647;-76
2022/01/11 07:24:15;;;;;;;25.00;13.27;;;;;;;1.60;76.46;101414.75;4974669;28;20284;-76
2022/01/11 07:26:41;;;;;;;30.27;14.57;;;;;;;1.63;76.22;101429.41;4975044;28;20677;-77
2022/01/11 07:29:07;;;;;;;26.23;14.23;;;;;;;1.66;76.98;101434.88;4957481;28;20196;-76
2022/01/11 07:31:36;;;;;;;25.53;13.80;;;;;;;1.66;76.53;101439.94;4975386;28;20174;-77
2022/01/11 07:34:05;;;;;;;26.43;13.40;;;;;;;1.69;75.78;101437.84;4974820;28;20166;-77
2022/01/11 07:36:31;;;;;;;25.73;12.43;;;;;;;1.66;75.66;101424.78;4975268;28;20205;-77
2022/01/11 07:38:57;;;;;;;22.73;12.77;;;;;;;1.67;75.87;101438.31;4975028;28;20657;-76
2022/01/11 07:41:22;;;;;;;25.77;12.87;;;;;;;1.61;76.06;101434.22;4975311;28;20237;-77
2022/01/11 07:43:47;;;;;;;22.20;12.03;;;;;;;1.62;75.95;101432.66;4975516;28;20185;-76
2022/01/11 07:46:13;;;;;;;24.63;12.77;;;;;;;1.71;76.07;101446.50;4974957;28;20233;-76
2022/01/11 07:48:39;;;;;;;26.00;13.00;;;;;;;1.73;75.52;101459.38;4975360;28;20714;-77
2022/01/11 07:51:05;;;;;;;22.03;12.33;;;;;;;1.67;76.11;101440.84;4974788;28;20214;-78
2022/01/11 07:53:30;;;;;;;21.43;12.03;;;;;;;1.75;75.89;101458.91;4974780;28;20190;-76
2022/01/11 07:55:57;;;;;;;23.57;11.67;;;;;;;1.74;75.45;101463.72;4975094;28;20212;-77
2022/01/11 07:58:23;;;;;;;20.63;11.67;;;;;;;1.75;74.76;101458.00;4974462;28;20314;-76
2022/01/11 08:00:48;;;;;;;21.27;11.33;;;;;;;1.74;74.61;101463.72;4974827;28;20178;-76
2022/01/11 08:03:14;;;;;;;23.17;11.20;;;;;;;1.71;74.80;101463.28;4957517;28;20188;-77
2022/01/11 08:05:41;;;;;;;23.60;11.23;;;;;;;1.78;74.49;101471.03;4974781;28;20185;-78
2022/01/11 08:08:06;;;;;;;19.57;10.87;;;;;;;1.69;74.49;101457.13;4974795;28;20190;-77
2022/01/11 08:10:32;;;;;;;20.20;10.67;;;;;;;1.64;74.35;101461.53;4974537;28;20226;-77
2022/01/11 08:12:58;;;;;;;16.67;9.77;;;;;;;1.69;74.37;101457.13;4974460;28;20216;-77
2022/01/11 08:15:23;;;;;;;18.00;9.93;;;;;;;1.79;73.95;101482.97;4974852;28;20234;-76
2022/01/11 08:17:49;;;;;;;20.13;9.43;;;;;;;1.51;74.07;101441.25;4974378;28;20701;-78
2022/01/11 08:20:16;;;;;;;17.00;9.97;;;;;;;1.53;73.63;101442.38;4974252;28;20269;-77
2022/01/11 08:22:42;;;;;;;29.63;15.27;;;;;;;1.65;73.62;101464.97;4974010;28;20178;-77
2022/01/11 08:25:08;;;;;;;20.57;11.57;;;;;;;1.69;73.99;101489.97;4956967;28;20204;-78
2022/01/11 08:27:34;;;;;;;25.13;12.93;;;;;;;1.49;74.26;101445.16;4956946;28;20178;-77
2022/01/11 08:30:00;;;;;;;21.47;12.63;;;;;;;1.76;74.37;101502.75;4973732;28;20188;-75
2022/01/11 08:32:26;;;;;;;21.77;11.47;;;;;;;1.59;74.76;101477.69;4973748;28;20178;-78
2022/01/11 08:34:52;;;;;;;20.33;10.07;;;;;;;1.74;73.84;101507.59;4974008;28;20178;-77
2022/01/11 08:37:17;;;;;;;16.37;9.33;;;;;;;1.71;73.40;101514.72;4973940;28;20206;-77
2022/01/11 08:39:44;;;;;;;19.80;9.80;;;;;;;1.70;72.94;101505.34;4973629;28;20200;-77
2022/01/11 08:42:12;;;;;;;25.07;10.90;;;;;;;1.69;73.09;101510.19;4973653;28;20185;-77
2022/01/11 08:44:40;;;;;;;21.90;11.60;;;;;;;1.69;72.67;101507.66;4973567;28;20668;-77
2022/01/11 08:47:06;;;;;;;17.87;9.70;;;;;;;1.72;73.36;101513.16;4973679;28;20269;-77
2022/01/11 08:49:32;;;;;;;25.40;12.30;;;;;;;1.73;73.18;101498.19;4973496;28;20214;-77
2022/01/11 08:51:58;;;;;;;22.53;11.37;;;;;;;1.74;73.48;101500.00;4973708;28;20209;-77
2022/01/11 08:54:24;;;;;;;25.07;12.23;;;;;;;1.76;73.82;101517.91;4973693;28;20231;-76
2022/01/11 08:56:55;;;;;;;23.90;11.57;;;;;;;1.70;73.02;101512.00;4973261;28;20786;-76
2022/01/11 08:59:21;;;;;;;23.83;10.73;;;;;;;1.70;72.82;101512.91;4955919;28;20189;-76
2022/01/11 09:01:48;;;;;;;18.87;9.33;;;;;;;1.69;72.37;101506.06;4956272;28;20193;-76
2022/01/11 09:04:14;;;;;;;17.63;9.60;;;;;;;1.72;72.95;101510.63;4973196;28;20174;-77
2022/01/11 09:06:39;;;;;;;16.13;9.43;;;;;;;1.69;73.63;101502.63;4972532;28;20216;-77
2022/01/11 09:09:05;;;;;;;18.43;9.97;;;;;;;1.70;74.16;101501.91;4973019;28;20729;-78
2022/01/11 09:11:31;;;;;;;17.93;9.73;;;;;;;1.65;73.66;101485.19;4955589;28;20233;-76
2022/01/11 09:13:57;;;;;;;15.57;8.60;;;;;;;1.75;72.88;101495.88;4973269;28;20186;-76
2022/01/11 09:16:24;;;;;;;17.80;10.80;;;;;;;1.53;73.39;101451.59;4955797;28;20292;-76
2022/01/11 09:18:50;;;;;;;13.73;8.57;;;;;;;1.70;73.08;101492.72;4955402;28;20202;-77
2022/01/11 09:21:16;;;;;;;15.23;8.83;;;;;;;1.70;72.86;101474.13;4972672;28;20166;-77
2022/01/11 09:23:42;;;;;;;13.83;7.73;;;;;;;1.70;73.06;101492.72;4972866;28;20745;-75
2022/01/11 09:26:08;;;;;;;12.33;7.10;;;;;;;1.71;73.43;101507.16;4972545;28;20206;-78
2022/01/11 09:28:33;;;;;;;16.77;9.03;;;;;;;1.71;73.76;101496.13;4972718;28;20269;-75
2022/01/11 09:31:00;;;;;;;15.53;8.63;;;;;;;1.68;74.12;101499.16;4972838;28;20241;-77
2022/01/11 09:33:25;;;;;;;15.37;8.63;;;;;;;1.74;73.80;101496.56;4972590;28;20178;-76
2022/01/11 09:35:52;;;;;;;15.10;8.73;;;;;;;1.71;73.68;101483.50;4955265;28;20182;-75
2022/01/11 09:38:18;;;;;;;16.30;8.47;;;;;;;1.67;73.40;101483.78;4971968;28;20236;-75
2022/01/11 09:40:44;;;;;;;19.43;9.50;;;;;;;1.77;72.95;101505.47;4973114;28;20662;-78
2022/01/11 09:43:11;;;;;;;17.07;8.93;;;;;;;1.75;72.59;101496.78;4972637;28;20185;-76
2022/01/11 09:45:38;;;;;;;16.63;8.03;;;;;;;1.48;72.93;101466.09;4973178;28;20733;-77
2022/01/11 09:48:04;;;;;;;14.27;7.87;;;;;;;1.26;73.08;101414.22;4955977;28;20178;-76
2022/01/11 09:50:30;;;;;;;13.87;8.63;;;;;;;1.74;73.07;101496.56;4972714;28;20331;-76
2022/01/11 09:52:57;;;;;;;13.03;7.90;;;;;;;1.78;73.02;101499.75;4972622;28;20174;-76
2022/01/11 09:55:22;;;;;;;15.80;8.67;;;;;;;1.78;72.79;101508.94;4972748;28;20177;-76
2022/01/11 09:57:49;;;;;;;17.17;9.50;;;;;;;1.71;73.15;101483.50;4972426;28;20225;-76
2022/01/11 10:00:15;;;;;;;18.33;9.50;;;;;;;1.74;72.88;101484.84;4972257;28;20738;-76
2022/01/11 10:02:42;;;;;;;13.47;8.20;;;;;;;1.76;72.81;101507.81;4972222;28;20272;-77
2022/01/11 10:05:10;;;;;;;17.00;9.90;;;;;;;1.78;73.07;101503.88;4972297;28;20245;-76
2022/01/11 10:07:40;;;;;;;17.90;8.77;;;;;;;1.76;73.01;101506.19;4971113;28;20181;-76
2022/01/11 10:10:15;;;;;;;16.50;8.10;;;;;;;1.80;71.94;101525.22;4973071;28;20209;-75
2022/01/11 10:12:55;;;;;;;15.03;7.97;;;;;;;1.78;72.63;101512.38;4972621;28;20185;-77
2022/01/11 10:15:39;;;;;;;15.37;9.13;;;;;;;1.54;73.17;101481.19;4972125;28;20181;-77
2022/01/11 10:18:06;;;;;;;14.40;7.37;;;;;;;1.76;72.74;101520.44;4972032;28;20369;-76
2022/01/11 10:20:35;;;;;;;13.93;7.93;;;;;;;1.77;72.18;101534.91;4972256;28;20178;-77
2022/01/11 10:23:05;;;;;;;14.53;8.27;;;;;;;1.74;72.55;101545.47;4972068;28;20680;-75
2022/01/11 10:25:42;;;;;;;17.33;9.87;;;;;;;1.75;72.48;101533.78;4972153;28;20254;-76
2022/01/11 10:28:07;;;;;;;16.57;9.13;;;;;;;1.74;72.46;101554.69;4972107;28;20660;-77
2022/01/11 10:30:34;;;;;;;14.97;8.60;;;;;;;1.75;72.56;101536.31;4972316;28;20170;-76
2022/01/11 10:33:04;;;;;;;15.43;9.10;;;;;;;1.73;72.67;101542.75;4975336;28;20178;-77
2022/01/11 10:35:40;;;;;;;13.40;8.07;;;;;;;1.75;72.28;101541.38;4976236;28;20181;-75
2022/01/11 10:38:06;;;;;;;14.80;9.07;;;;;;;1.67;72.19;101547.88;4975895;28;20205;-76
2022/01/11 10:40:39;;;;;;;23.63;9.90;;;;;;;1.64;72.90;101541.47;4976104;28;20178;-76
2022/01/11 10:43:10;;;;;;;13.40;8.73;;;;;;;1.73;72.76;101553.78;4958201;28;20178;-75
2022/01/11 10:45:39;;;;;;;13.20;8.10;;;;;;;1.70;72.92;101545.75;4958373;28;20182;-77
2022/01/11 10:48:10;;;;;;;15.57;8.70;;;;;;;1.73;72.23;101538.59;4975935;28;20182;-76
2022/01/11 10:50:39;;;;;;;18.53;9.53;;;;;;;1.68;72.56;101521.88;4975720;28;20170;-78
2022/01/11 10:53:10;;;;;;;21.27;8.87;;;;;;;1.80;72.48;101526.13;4975423;28;20562;-78
2022/01/11 10:55:36;;;;;;;22.00;8.73;;;;;;;1.71;72.50;101527.38;4975778;28;20191;-75
2022/01/11 10:58:09;;;;;;;15.97;8.07;;;;;;;1.80;72.30;101547.97;4975090;28;20786;-77
2022/01/11 11:00:43;;;;;;;14.53;7.90;;;;;;;1.74;71.59;101542.94;4958447;28;20689;-76
2022/01/11 11:03:26;;;;;;;14.50;7.60;;;;;;;1.73;71.70;101527.59;4975602;28;20174;-77
2022/01/11 11:06:07;;;;;;;13.93;8.20;;;;;;;1.70;71.53;101547.38;4975724;28;20162;-79
2022/01/11 11:08:40;;;;;;;12.83;8.40;;;;;;;1.67;71.83;101532.69;4975413;28;20178;-76
2022/01/11 11:11:10;;;;;;;14.53;7.23;;;;;;;1.75;71.71;101528.75;4975519;28;20321;-76
2022/01/11 11:13:40;;;;;;;13.77;7.60;;;;;;;1.77;71.58;101527.31;4975219;28;20178;-76
2022/01/11 11:16:09;;;;;;;12.47;7.20;;;;;;;1.76;71.67;101526.41;4975426;28;20170;-77
2022/01/11 11:18:40;;;;;;;14.13;8.13;;;;;;;1.74;71.63;101530.31;4975516;28;20289;-76
2022/01/11 11:21:12;;;;;;;10.60;6.97;;;;;;;1.73;71.86;101537.69;4975272;28;20593;-77
2022/01/11 11:23:37;;;;;;;22.73;9.07;;;;;;;1.67;71.45;101522.59;4975342;28;20178;-77
2022/01/11 11:26:03;;;;;;;14.93;8.67;;;;;;;1.75;71.89;101534.69;4975105;28;20174;-76